<?xml version="1.0" encoding="UTF-8" standalone="no" ?>
<gpx xmlns="http://www.topografix.com/GPX/1/1" xmlns:xsi="http://www.w3.org/2001/XMLSchema-instance" xsi:schemaLocation="http://www.topografix.com/GPX/1/1 http://www.topografix.com/GPX/1/1/gpx.xsd" version="1.1" creator="VisuGPX - https://www.visugpx.com">
  <metadata>
    <name>Marche 2022 - 5km</name>
  </metadata>
  <trk>
    <name><![CDATA[14275509-Marche 2022 - 5km]]></name>
    <trkseg>
      <trkpt lat="45.8482" lon="4.52959">
        <ele>424</ele>
        <time>2022-03-20T20:23:26Z</time>
      </trkpt>
      <trkpt lat="45.84813" lon="4.52985">
        <ele>421</ele>
        <time>2022-03-20T20:23:52Z</time>
      </trkpt>
      <trkpt lat="45.84809" lon="4.52991">
        <ele>420</ele>
        <time>2022-03-20T20:24:00Z</time>
      </trkpt>
      <trkpt lat="45.84804" lon="4.52991">
        <ele>420</ele>
        <time>2022-03-20T20:24:06Z</time>
      </trkpt>
      <trkpt lat="45.84791" lon="4.52982">
        <ele>421</ele>
        <time>2022-03-20T20:24:26Z</time>
      </trkpt>
      <trkpt lat="45.84737" lon="4.52944">
        <ele>425</ele>
        <time>2022-03-20T20:25:46Z</time>
      </trkpt>
      <trkpt lat="45.84679" lon="4.52948">
        <ele>423</ele>
        <time>2022-03-20T20:27:03Z</time>
      </trkpt>
      <trkpt lat="45.84693" lon="4.52996">
        <ele>417</ele>
        <time>2022-03-20T20:27:52Z</time>
      </trkpt>
      <trkpt lat="45.84711" lon="4.53029">
        <ele>415</ele>
        <time>2022-03-20T20:28:31Z</time>
      </trkpt>
      <trkpt lat="45.84725" lon="4.53068">
        <ele>413</ele>
        <time>2022-03-20T20:29:11Z</time>
      </trkpt>
      <trkpt lat="45.84727" lon="4.53147">
        <ele>408</ele>
        <time>2022-03-20T20:30:25Z</time>
      </trkpt>
      <trkpt lat="45.84724" lon="4.5316">
        <ele>407</ele>
        <time>2022-03-20T20:30:38Z</time>
      </trkpt>
      <trkpt lat="45.8473" lon="4.53227">
        <ele>403</ele>
        <time>2022-03-20T20:31:40Z</time>
      </trkpt>
      <trkpt lat="45.84783" lon="4.53294">
        <ele>394</ele>
        <time>2022-03-20T20:33:15Z</time>
      </trkpt>
      <trkpt lat="45.84789" lon="4.53308">
        <ele>392</ele>
        <time>2022-03-20T20:33:30Z</time>
      </trkpt>
      <trkpt lat="45.84807" lon="4.53376">
        <ele>387</ele>
        <time>2022-03-20T20:34:38Z</time>
      </trkpt>
      <trkpt lat="45.84822" lon="4.534">
        <ele>384</ele>
        <time>2022-03-20T20:35:08Z</time>
      </trkpt>
      <trkpt lat="45.8491" lon="4.5355">
        <ele>374</ele>
        <time>2022-03-20T20:38:10Z</time>
      </trkpt>
      <trkpt lat="45.84951" lon="4.53635">
        <ele>373</ele>
        <time>2022-03-20T20:39:46Z</time>
      </trkpt>
      <trkpt lat="45.84974" lon="4.53724">
        <ele>371</ele>
        <time>2022-03-20T20:41:14Z</time>
      </trkpt>
      <trkpt lat="45.84984" lon="4.53766">
        <ele>370</ele>
        <time>2022-03-20T20:41:55Z</time>
      </trkpt>
      <trkpt lat="45.85005" lon="4.53833">
        <ele>366</ele>
        <time>2022-03-20T20:43:04Z</time>
      </trkpt>
      <trkpt lat="45.85012" lon="4.53846">
        <ele>365</ele>
        <time>2022-03-20T20:43:19Z</time>
      </trkpt>
      <trkpt lat="45.85061" lon="4.53906">
        <ele>360</ele>
        <time>2022-03-20T20:44:45Z</time>
      </trkpt>
      <trkpt lat="45.85102" lon="4.53986">
        <ele>355</ele>
        <time>2022-03-20T20:46:17Z</time>
      </trkpt>
      <trkpt lat="45.85123" lon="4.54054">
        <ele>354</ele>
        <time>2022-03-20T20:47:26Z</time>
      </trkpt>
      <trkpt lat="45.85181" lon="4.54251">
        <ele>346</ele>
        <time>2022-03-20T20:50:45Z</time>
      </trkpt>
      <trkpt lat="45.85224" lon="4.54383">
        <ele>343</ele>
        <time>2022-03-20T20:53:01Z</time>
      </trkpt>
      <trkpt lat="45.85265" lon="4.54498">
        <ele>337</ele>
        <time>2022-03-20T20:55:01Z</time>
      </trkpt>
      <trkpt lat="45.85309" lon="4.54602">
        <ele>333</ele>
        <time>2022-03-20T20:56:54Z</time>
      </trkpt>
      <trkpt lat="45.85353" lon="4.54699">
        <ele>331</ele>
        <time>2022-03-20T20:58:41Z</time>
      </trkpt>
      <trkpt lat="45.85358" lon="4.54717">
        <ele>330</ele>
        <time>2022-03-20T20:58:59Z</time>
      </trkpt>
      <trkpt lat="45.85325" lon="4.54773">
        <ele>329</ele>
        <time>2022-03-20T21:00:08Z</time>
      </trkpt>
      <trkpt lat="45.85228" lon="4.54907">
        <ele>332</ele>
        <time>2022-03-20T21:03:07Z</time>
      </trkpt>
      <trkpt lat="45.85217" lon="4.54929">
        <ele>333</ele>
        <time>2022-03-20T21:03:32Z</time>
      </trkpt>
      <trkpt lat="45.85198" lon="4.5498">
        <ele>335</ele>
        <time>2022-03-20T21:04:26Z</time>
      </trkpt>
      <trkpt lat="45.85171" lon="4.55071">
        <ele>335</ele>
        <time>2022-03-20T21:05:58Z</time>
      </trkpt>
      <trkpt lat="45.85158" lon="4.55099">
        <ele>336</ele>
        <time>2022-03-20T21:06:29Z</time>
      </trkpt>
      <trkpt lat="45.85137" lon="4.5519">
        <ele>334</ele>
        <time>2022-03-20T21:07:58Z</time>
      </trkpt>
      <trkpt lat="45.85114" lon="4.5524">
        <ele>336</ele>
        <time>2022-03-20T21:08:54Z</time>
      </trkpt>
      <trkpt lat="45.8509" lon="4.55284">
        <ele>337</ele>
        <time>2022-03-20T21:09:46Z</time>
      </trkpt>
      <trkpt lat="45.8508" lon="4.55298">
        <ele>338</ele>
        <time>2022-03-20T21:10:05Z</time>
      </trkpt>
      <trkpt lat="45.85065" lon="4.55307">
        <ele>339</ele>
        <time>2022-03-20T21:10:26Z</time>
      </trkpt>
      <trkpt lat="45.85038" lon="4.55317">
        <ele>341</ele>
        <time>2022-03-20T21:11:04Z</time>
      </trkpt>
      <trkpt lat="45.849" lon="4.55338">
        <ele>346</ele>
        <time>2022-03-20T21:14:09Z</time>
      </trkpt>
      <trkpt lat="45.84833" lon="4.5534">
        <ele>343</ele>
        <time>2022-03-20T21:15:38Z</time>
      </trkpt>
      <trkpt lat="45.84801" lon="4.55343">
        <ele>342</ele>
        <time>2022-03-20T21:16:21Z</time>
      </trkpt>
      <trkpt lat="45.8476" lon="4.55359">
        <ele>339</ele>
        <time>2022-03-20T21:17:18Z</time>
      </trkpt>
      <trkpt lat="45.84704" lon="4.55366">
        <ele>341</ele>
        <time>2022-03-20T21:18:33Z</time>
      </trkpt>
      <trkpt lat="45.84617" lon="4.55412">
        <ele>342</ele>
        <time>2022-03-20T21:20:36Z</time>
      </trkpt>
      <trkpt lat="45.84608" lon="4.55411">
        <ele>342</ele>
        <time>2022-03-20T21:20:49Z</time>
      </trkpt>
      <trkpt lat="45.84611" lon="4.55363">
        <ele>343</ele>
        <time>2022-03-20T21:21:33Z</time>
      </trkpt>
      <trkpt lat="45.8463" lon="4.55269">
        <ele>348</ele>
        <time>2022-03-20T21:23:04Z</time>
      </trkpt>
      <trkpt lat="45.84628" lon="4.55244">
        <ele>349</ele>
        <time>2022-03-20T21:23:28Z</time>
      </trkpt>
      <trkpt lat="45.84617" lon="4.55141">
        <ele>351</ele>
        <time>2022-03-20T21:25:05Z</time>
      </trkpt>
      <trkpt lat="45.84621" lon="4.5502">
        <ele>355</ele>
        <time>2022-03-20T21:26:57Z</time>
      </trkpt>
      <trkpt lat="45.84635" lon="4.549">
        <ele>361</ele>
        <time>2022-03-20T21:28:50Z</time>
      </trkpt>
      <trkpt lat="45.84648" lon="4.54805">
        <ele>364</ele>
        <time>2022-03-20T21:30:20Z</time>
      </trkpt>
      <trkpt lat="45.84657" lon="4.54717">
        <ele>363</ele>
        <time>2022-03-20T21:31:43Z</time>
      </trkpt>
      <trkpt lat="45.84673" lon="4.54631">
        <ele>361</ele>
        <time>2022-03-20T21:33:06Z</time>
      </trkpt>
      <trkpt lat="45.84687" lon="4.54546">
        <ele>360</ele>
        <time>2022-03-20T21:34:27Z</time>
      </trkpt>
      <trkpt lat="45.84671" lon="4.54452">
        <ele>361</ele>
        <time>2022-03-20T21:35:57Z</time>
      </trkpt>
      <trkpt lat="45.84648" lon="4.54375">
        <ele>362</ele>
        <time>2022-03-20T21:37:15Z</time>
      </trkpt>
      <trkpt lat="45.84631" lon="4.54308">
        <ele>363</ele>
        <time>2022-03-20T21:38:21Z</time>
      </trkpt>
      <trkpt lat="45.84615" lon="4.54251">
        <ele>366</ele>
        <time>2022-03-20T21:39:18Z</time>
      </trkpt>
      <trkpt lat="45.84611" lon="4.54223">
        <ele>368</ele>
        <time>2022-03-20T21:39:45Z</time>
      </trkpt>
      <trkpt lat="45.84599" lon="4.54156">
        <ele>373</ele>
        <time>2022-03-20T21:40:49Z</time>
      </trkpt>
      <trkpt lat="45.84594" lon="4.54084">
        <ele>377</ele>
        <time>2022-03-20T21:41:56Z</time>
      </trkpt>
      <trkpt lat="45.84594" lon="4.54009">
        <ele>385</ele>
        <time>2022-03-20T21:43:06Z</time>
      </trkpt>
      <trkpt lat="45.84643" lon="4.537">
        <ele>389</ele>
        <time>2022-03-20T21:48:01Z</time>
      </trkpt>
      <trkpt lat="45.84643" lon="4.53676">
        <ele>390</ele>
        <time>2022-03-20T21:48:23Z</time>
      </trkpt>
      <trkpt lat="45.84626" lon="4.53578">
        <ele>393</ele>
        <time>2022-03-20T21:49:57Z</time>
      </trkpt>
      <trkpt lat="45.84615" lon="4.53542">
        <ele>394</ele>
        <time>2022-03-20T21:50:33Z</time>
      </trkpt>
      <trkpt lat="45.84614" lon="4.53514">
        <ele>393</ele>
        <time>2022-03-20T21:50:59Z</time>
      </trkpt>
      <trkpt lat="45.84615" lon="4.53508">
        <ele>393</ele>
        <time>2022-03-20T21:51:05Z</time>
      </trkpt>
      <trkpt lat="45.84617" lon="4.53468">
        <ele>393</ele>
        <time>2022-03-20T21:51:42Z</time>
      </trkpt>
      <trkpt lat="45.84623" lon="4.5345">
        <ele>393</ele>
        <time>2022-03-20T21:52:01Z</time>
      </trkpt>
      <trkpt lat="45.84666" lon="4.53388">
        <ele>393</ele>
        <time>2022-03-20T21:53:22Z</time>
      </trkpt>
      <trkpt lat="45.84693" lon="4.53337">
        <ele>395</ele>
        <time>2022-03-20T21:54:22Z</time>
      </trkpt>
      <trkpt lat="45.84697" lon="4.5333">
        <ele>395</ele>
        <time>2022-03-20T21:54:30Z</time>
      </trkpt>
      <trkpt lat="45.8471" lon="4.533">
        <ele>397</ele>
        <time>2022-03-20T21:55:03Z</time>
      </trkpt>
      <trkpt lat="45.8472" lon="4.53272">
        <ele>399</ele>
        <time>2022-03-20T21:55:32Z</time>
      </trkpt>
      <trkpt lat="45.84728" lon="4.53238">
        <ele>402</ele>
        <time>2022-03-20T21:56:06Z</time>
      </trkpt>
      <trkpt lat="45.84728" lon="4.53226">
        <ele>403</ele>
        <time>2022-03-20T21:56:17Z</time>
      </trkpt>
      <trkpt lat="45.84727" lon="4.53171">
        <ele>406</ele>
        <time>2022-03-20T21:57:08Z</time>
      </trkpt>
      <trkpt lat="45.84724" lon="4.53133">
        <ele>409</ele>
        <time>2022-03-20T21:57:44Z</time>
      </trkpt>
      <trkpt lat="45.84724" lon="4.5307">
        <ele>412</ele>
        <time>2022-03-20T21:58:42Z</time>
      </trkpt>
      <trkpt lat="45.84714" lon="4.53036">
        <ele>415</ele>
        <time>2022-03-20T21:59:16Z</time>
      </trkpt>
      <trkpt lat="45.84691" lon="4.52996">
        <ele>417</ele>
        <time>2022-03-20T22:00:05Z</time>
      </trkpt>
      <trkpt lat="45.8468" lon="4.5295">
        <ele>423</ele>
        <time>2022-03-20T22:00:50Z</time>
      </trkpt>
      <trkpt lat="45.84734" lon="4.52943">
        <ele>425</ele>
        <time>2022-03-20T22:02:02Z</time>
      </trkpt>
      <trkpt lat="45.84751" lon="4.52937">
        <ele>427</ele>
        <time>2022-03-20T22:02:26Z</time>
      </trkpt>
      <trkpt lat="45.84789" lon="4.5296">
        <ele>424</ele>
        <time>2022-03-20T22:03:21Z</time>
      </trkpt>
      <trkpt lat="45.84815" lon="4.52971">
        <ele>423</ele>
        <time>2022-03-20T22:03:57Z</time>
      </trkpt>
      <trkpt lat="45.84818" lon="4.52955">
        <ele>425</ele>
        <time>2022-03-20T22:04:12Z</time>
      </trkpt>
    </trkseg>
  </trk>
</gpx>